Ciili, Kazakhstan
Current Conditions -  °F | °C
As of 6:30 PM on Saturday 20 Dec 2014 (Local Time) from UAOO Reporting Station
Clear Clear  
Wind Chill: 26°   Ceiling: Unl
Heat Index: 32°   Visibility: 6mi
Dew Point: 28°   Wind: 7mph
Humidity: 87%   Direction: 60°ENE
Pressure: 30.15"   Gusts: NA
Location:  44.17°N, 66.75°E
Report Text: UAOO 201330Z 06003MPS CAVOK 00/M02 Q1021 R06/CLRD70 NOSIG RMKQFE754/1006
Loading
Personal Weather Stations






























Interactive Weather Map New forecast layout! Learn more

10-Day Weather Forecast

Advertisements
Track Severe Weather on mobile